Forester — DIUT — position and weather

sailwx.info

Track history (hours):
 
Tides and Currents Weather Stations Pressure Air Temp Water Temp Dewpoint Dewpoint Depression Visibility Wind Speed Wind Dir Waves Ship Positions

Forester

Last reported at 2015-Feb-26 11:10 UTC. Time now 2015-Feb-27 04:08 UTC.
Position N 36°01' W 005°08'.

Length 100 m; draft 7.1 m.

Type: Ship. MMSI: 211233870.

Date/timePositionNaut miles runAvg speedWind from/ knotsBaromVisibWave heightAir tempDewpointWater temp
2015-Feb-26 11:10N 36°01' W 005°08'711.6
2015-Feb-26 10:33N 36°00' W 005°16'1111.1
2015-Feb-26 09:34N 35°57' W 005°30'262 9.0
2015-Feb-25 04:30N 38°26' W 010°00'1311.1
2015-Feb-25 03:18N 38°39' W 010°04'  
2015-Feb-21 17:32N 50°18' W 002°11'1313.6
2015-Feb-21 16:33N 50°21' W 001°51'1414.0
2015-Feb-21 15:33N 50°24' W 001°29'1414.0
2015-Feb-21 14:33N 50°26' W 001°07'1313.1
2015-Feb-21 13:33N 50°28' W 000°47'1010.3
2015-Feb-21 12:33N 50°30' W 000°31'9 8.7
2015-Feb-21 11:30N 50°31' W 000°17'8 7.8
2015-Feb-21 10:27N 50°32' W 000°04'7 7.7
2015-Feb-21 09:31N 50°34' E 000°07'8 8.7
2015-Feb-21 08:34N 50°36' E 000°20'1010.5
2015-Feb-21 07:34N 50°39' E 000°35'1211.8
2015-Feb-21 06:34N 50°46' E 000°51'1211.5
2015-Feb-21 05:33N 50°53' E 001°06'1110.7
2015-Feb-21 04:33N 50°60' E 001°19'9 9.1
2015-Feb-21 03:34N 51°06' E 001°30'7 7.4
2015-Feb-21 02:33N 51°11' E 001°38'7 7.3
2015-Feb-21 01:34N 51°16' E 001°46'9 9.2
2015-Feb-21 00:33N 51°24' E 001°53'1111.1
2015-Feb-20 23:34N 51°32' E 002°05'15010.7
2015-Feb-20 09:34N 53°28' E 004°42'8 8.4
2015-Feb-20 08:34N 53°31' E 004°55'8 7.9
2015-Feb-20 07:34N 53°34' E 005°07'8 7.8
2015-Feb-20 06:34N 53°37' E 005°20'8 7.6
2015-Feb-20 05:34N 53°39' E 005°32'8 8.3
2015-Feb-20 04:34N 53°42' E 005°45'10 9.5
2015-Feb-20 03:33N 53°45' E 006°01'38 9.1
2015-Feb-19 23:20N 53°55' E 007°04'15 7.9
2015-Feb-19 21:27N 53°58' E 007°28'7 7.4
2015-Feb-19 20:33N 54°01' E 007°39'7 7.2
2015-Feb-19 19:33N 54°01' E 007°51'9 8.5
2015-Feb-19 18:33N 54°01' E 008°05'1010.0
2015-Feb-19 17:34N 53°59' E 008°22'1313.2
2015-Feb-19 16:33N 53°54' E 008°42'1211.9
2015-Feb-19 15:33N 53°52' E 009°02'4 4.4
2015-Feb-19 14:33N 53°54' E 009°09'2 1.6
2015-Feb-19 13:33N 53°55' E 009°11'0 0.0
2015-Feb-19 12:33N 53°55' E 009°11'0 0.0
2015-Feb-19 11:33N 53°55' E 009°11'0 0.4
2015-Feb-19 10:33N 53°55' E 009°11'8 7.9
2015-Feb-19 09:33N 54°02' E 009°18'8 8.0
2015-Feb-19 08:33N 54°09' E 009°23'8 7.6
2015-Feb-19 07:29N 54°13' E 009°36'3 3.0
2015-Feb-19 06:33N 54°16' E 009°37'5 4.7
2015-Feb-19 05:33N 54°19' E 009°43'6 6.3
2015-Feb-19 04:33N 54°21' E 009°53'3 2.8
2015-Feb-19 03:33N 54°21' E 009°57'5 5.2
2015-Feb-19 02:33N 54°22' E 010°06'2 2.2
2015-Feb-19 01:33N 54°22' E 010°10'8 8.2
2015-Feb-19 00:33N 54°29' E 010°16'9 9.2
2015-Feb-18 23:33N 54°33' E 010°31'1010.0
2015-Feb-18 22:33N 54°35' E 010°48'1010.4
2015-Feb-18 21:33N 54°36' E 011°05'1010.0
2015-Feb-18 20:33N 54°33' E 011°22'1110.8
2015-Feb-18 19:33N 54°22' E 011°26'1110.6
2015-Feb-18 18:33N 54°12' E 011°26'9 9.4
2015-Feb-18 17:33N 54°02' E 011°24'7 7.2
2015-Feb-18 16:33N 53°55' E 011°26'1 1.3
2015-Feb-18 15:31N 53°54' E 011°28'0 0.0
2015-Feb-18 14:31N 53°54' E 011°28'0 0.0
2015-Feb-18 13:31N 53°54' E 011°28'0 0.0
2015-Feb-18 12:34N 53°54' E 011°28'0 0.0
2015-Feb-18 11:33N 53°54' E 011°28'0 0.0
2015-Feb-18 10:33N 53°54' E 011°28'0 0.0
2015-Feb-18 09:33N 53°54' E 011°28'0 0.0
2015-Feb-18 08:33N 53°54' E 011°28'0 0.0
2015-Feb-18 07:33N 53°54' E 011°28'0 0.0
2015-Feb-18 06:33N 53°54' E 011°28'0 0.0
2015-Feb-18 05:33N 53°54' E 011°28'0 0.0
2015-Feb-18 04:33N 53°54' E 011°28'0 0.0
2015-Feb-18 03:33N 53°54' E 011°28'0 0.0
2015-Feb-18 02:33N 53°54' E 011°28'0 0.0
2015-Feb-18 01:33N 53°54' E 011°28'0 0.0
2015-Feb-18 00:33N 53°54' E 011°28'0 0.0
2015-Feb-17 23:33N 53°54' E 011°28'0 0.0
2015-Feb-17 22:33N 53°54' E 011°28'0 0.0
2015-Feb-17 21:33N 53°54' E 011°28'0 0.0
2015-Feb-17 20:33N 53°54' E 011°28'0 0.0
2015-Feb-17 19:33N 53°54' E 011°28'0 0.0
2015-Feb-17 17:33N 53°54' E 011°28'0 0.0
2015-Feb-17 16:33N 53°54' E 011°28'0 0.0
2015-Feb-17 15:33N 53°54' E 011°28'0 0.0
2015-Feb-17 14:33N 53°54' E 011°28'0 0.0
2015-Feb-17 13:33N 53°54' E 011°28'0 0.0
2015-Feb-17 12:33N 53°54' E 011°28'0 0.0
2015-Feb-17 11:31N 53°54' E 011°28'0 0.0
2015-Feb-17 10:31N 53°54' E 011°28'0 0.0
2015-Feb-17 09:31N 53°54' E 011°28'0 0.0
2015-Feb-17 08:31N 53°54' E 011°28'0 0.0
2015-Feb-17 07:31N 53°54' E 011°28'0 0.0
2015-Feb-17 06:31N 53°54' E 011°28'0 0.0
2015-Feb-17 05:31N 53°54' E 011°28'0 0.0
2015-Feb-17 04:31N 53°54' E 011°28'0 0.0
2015-Feb-17 03:31N 53°54' E 011°28'0 0.0
2015-Feb-17 02:31N 53°54' E 011°28'0 0.0
2015-Feb-17 01:31N 53°54' E 011°28'0 0.0
2015-Feb-17 00:28N 53°54' E 011°28'0 0.0
2015-Feb-16 23:31N 53°54' E 011°28'0 0.0
2015-Feb-16 22:31N 53°54' E 011°28'0 0.0
2015-Feb-16 21:31N 53°54' E 011°28'0 0.0
2015-Feb-16 20:31N 53°54' E 011°28'0 0.0
2015-Feb-16 19:31N 53°54' E 011°28'0 0.0
2015-Feb-16 18:31N 53°54' E 011°28'0 0.0
2015-Feb-16 17:28N 53°54' E 011°28'0 0.0
2015-Feb-16 16:31N 53°54' E 011°28'0 0.0
2015-Feb-16 15:28N 53°54' E 011°28'0 0.0
2015-Feb-16 14:28N 53°54' E 011°28'0 0.0
2015-Feb-16 13:31N 53°54' E 011°28'0 0.0
2015-Feb-16 12:31N 53°54' E 011°28'0 0.0
2015-Feb-16 11:31N 53°54' E 011°28'  
Track history (hours):
 
Tides and Currents Weather Stations Pressure Air Temp Water Temp Dewpoint Dewpoint Depression Visibility Wind Speed Wind Dir Waves Ship Positions

Forester

Last reported at 2015-Feb-26 11:10 UTC. Time now 2015-Feb-27 04:08 UTC.
Position N 36°01' W 005°08'.

Length 100 m; draft 7.1 m.

Type: Ship. MMSI: 211233870.

Date/timePositionNaut miles runAvg speedWind from/ knotsBaromVisibWave heightAir tempDewpointWater temp
2015-Feb-26 11:10N 36°01' W 005°08'711.6
2015-Feb-26 10:33N 36°00' W 005°16'1111.1
2015-Feb-26 09:34N 35°57' W 005°30'262 9.0
2015-Feb-25 04:30N 38°26' W 010°00'1311.1
2015-Feb-25 03:18N 38°39' W 010°04'  
2015-Feb-21 17:32N 50°18' W 002°11'1313.6
2015-Feb-21 16:33N 50°21' W 001°51'1414.0
2015-Feb-21 15:33N 50°24' W 001°29'1414.0
2015-Feb-21 14:33N 50°26' W 001°07'1313.1
2015-Feb-21 13:33N 50°28' W 000°47'1010.3
2015-Feb-21 12:33N 50°30' W 000°31'9 8.7
2015-Feb-21 11:30N 50°31' W 000°17'8 7.8
2015-Feb-21 10:27N 50°32' W 000°04'7 7.7
2015-Feb-21 09:31N 50°34' E 000°07'8 8.7
2015-Feb-21 08:34N 50°36' E 000°20'1010.5
2015-Feb-21 07:34N 50°39' E 000°35'1211.8
2015-Feb-21 06:34N 50°46' E 000°51'1211.5
2015-Feb-21 05:33N 50°53' E 001°06'1110.7
2015-Feb-21 04:33N 50°60' E 001°19'9 9.1
2015-Feb-21 03:34N 51°06' E 001°30'7 7.4
2015-Feb-21 02:33N 51°11' E 001°38'7 7.3
2015-Feb-21 01:34N 51°16' E 001°46'9 9.2
2015-Feb-21 00:33N 51°24' E 001°53'1111.1
2015-Feb-20 23:34N 51°32' E 002°05'15010.7
2015-Feb-20 09:34N 53°28' E 004°42'8 8.4
2015-Feb-20 08:34N 53°31' E 004°55'8 7.9
2015-Feb-20 07:34N 53°34' E 005°07'8 7.8
2015-Feb-20 06:34N 53°37' E 005°20'8 7.6
2015-Feb-20 05:34N 53°39' E 005°32'8 8.3
2015-Feb-20 04:34N 53°42' E 005°45'10 9.5
2015-Feb-20 03:33N 53°45' E 006°01'38 9.1
2015-Feb-19 23:20N 53°55' E 007°04'15 7.9
2015-Feb-19 21:27N 53°58' E 007°28'7 7.4
2015-Feb-19 20:33N 54°01' E 007°39'7 7.2
2015-Feb-19 19:33N 54°01' E 007°51'9 8.5
2015-Feb-19 18:33N 54°01' E 008°05'1010.0
2015-Feb-19 17:34N 53°59' E 008°22'1313.2
2015-Feb-19 16:33N 53°54' E 008°42'1211.9
2015-Feb-19 15:33N 53°52' E 009°02'4 4.4
2015-Feb-19 14:33N 53°54' E 009°09'2 1.6
2015-Feb-19 13:33N 53°55' E 009°11'0 0.0
2015-Feb-19 12:33N 53°55' E 009°11'0 0.0
2015-Feb-19 11:33N 53°55' E 009°11'0 0.4
2015-Feb-19 10:33N 53°55' E 009°11'8 7.9
2015-Feb-19 09:33N 54°02' E 009°18'8 8.0
2015-Feb-19 08:33N 54°09' E 009°23'8 7.6
2015-Feb-19 07:29N 54°13' E 009°36'3 3.0
2015-Feb-19 06:33N 54°16' E 009°37'5 4.7
2015-Feb-19 05:33N 54°19' E 009°43'6 6.3
2015-Feb-19 04:33N 54°21' E 009°53'3 2.8
2015-Feb-19 03:33N 54°21' E 009°57'5 5.2
2015-Feb-19 02:33N 54°22' E 010°06'2 2.2
2015-Feb-19 01:33N 54°22' E 010°10'8 8.2
2015-Feb-19 00:33N 54°29' E 010°16'9 9.2
2015-Feb-18 23:33N 54°33' E 010°31'1010.0
2015-Feb-18 22:33N 54°35' E 010°48'1010.4
2015-Feb-18 21:33N 54°36' E 011°05'1010.0
2015-Feb-18 20:33N 54°33' E 011°22'1110.8
2015-Feb-18 19:33N 54°22' E 011°26'1110.6
2015-Feb-18 18:33N 54°12' E 011°26'9 9.4
2015-Feb-18 17:33N 54°02' E 011°24'7 7.2
2015-Feb-18 16:33N 53°55' E 011°26'1 1.3
2015-Feb-18 15:31N 53°54' E 011°28'0 0.0
2015-Feb-18 14:31N 53°54' E 011°28'0 0.0
2015-Feb-18 13:31N 53°54' E 011°28'0 0.0
2015-Feb-18 12:34N 53°54' E 011°28'0 0.0
2015-Feb-18 11:33N 53°54' E 011°28'0 0.0
2015-Feb-18 10:33N 53°54' E 011°28'0 0.0
2015-Feb-18 09:33N 53°54' E 011°28'0 0.0
2015-Feb-18 08:33N 53°54' E 011°28'0 0.0
2015-Feb-18 07:33N 53°54' E 011°28'0 0.0
2015-Feb-18 06:33N 53°54' E 011°28'0 0.0
2015-Feb-18 05:33N 53°54' E 011°28'0 0.0
2015-Feb-18 04:33N 53°54' E 011°28'0 0.0
2015-Feb-18 03:33N 53°54' E 011°28'0 0.0
2015-Feb-18 02:33N 53°54' E 011°28'0 0.0
2015-Feb-18 01:33N 53°54' E 011°28'0 0.0
2015-Feb-18 00:33N 53°54' E 011°28'0 0.0
2015-Feb-17 23:33N 53°54' E 011°28'0 0.0
2015-Feb-17 22:33N 53°54' E 011°28'0 0.0
2015-Feb-17 21:33N 53°54' E 011°28'0 0.0
2015-Feb-17 20:33N 53°54' E 011°28'0 0.0
2015-Feb-17 19:33N 53°54' E 011°28'0 0.0
2015-Feb-17 17:33N 53°54' E 011°28'0 0.0
2015-Feb-17 16:33N 53°54' E 011°28'0 0.0
2015-Feb-17 15:33N 53°54' E 011°28'0 0.0
2015-Feb-17 14:33N 53°54' E 011°28'0 0.0
2015-Feb-17 13:33N 53°54' E 011°28'0 0.0
2015-Feb-17 12:33N 53°54' E 011°28'0 0.0
2015-Feb-17 11:31N 53°54' E 011°28'0 0.0
2015-Feb-17 10:31N 53°54' E 011°28'0 0.0
2015-Feb-17 09:31N 53°54' E 011°28'0 0.0
2015-Feb-17 08:31N 53°54' E 011°28'0 0.0
2015-Feb-17 07:31N 53°54' E 011°28'0 0.0
2015-Feb-17 06:31N 53°54' E 011°28'0 0.0
2015-Feb-17 05:31N 53°54' E 011°28'0 0.0
2015-Feb-17 04:31N 53°54' E 011°28'0 0.0
2015-Feb-17 03:31N 53°54' E 011°28'0 0.0
2015-Feb-17 02:31N 53°54' E 011°28'0 0.0
2015-Feb-17 01:31N 53°54' E 011°28'0 0.0
2015-Feb-17 00:28N 53°54' E 011°28'0 0.0
2015-Feb-16 23:31N 53°54' E 011°28'0 0.0
2015-Feb-16 22:31N 53°54' E 011°28'0 0.0
2015-Feb-16 21:31N 53°54' E 011°28'0 0.0
2015-Feb-16 20:31N 53°54' E 011°28'0 0.0
2015-Feb-16 19:31N 53°54' E 011°28'0 0.0
2015-Feb-16 18:31N 53°54' E 011°28'0 0.0
2015-Feb-16 17:28N 53°54' E 011°28'0 0.0
2015-Feb-16 16:31N 53°54' E 011°28'0 0.0
2015-Feb-16 15:28N 53°54' E 011°28'0 0.0
2015-Feb-16 14:28N 53°54' E 011°28'0 0.0
2015-Feb-16 13:31N 53°54' E 011°28'0 0.0
2015-Feb-16 12:31N 53°54' E 011°28'0 0.0
2015-Feb-16 11:31N 53°54' E 011°28'  

Dump ship's entire track history